createdAt,value
2022-10-22T00:01:40.564Z,100020.63
2022-10-22T00:04:07.421Z,100022.53
2022-10-22T00:06:34.343Z,100015.78
2022-10-22T00:09:01.101Z,100010.63
2022-10-22T00:11:27.695Z,100005.56
2022-10-22T00:13:54.381Z,100002.63
2022-10-22T00:16:21.507Z,100002.78
2022-10-22T00:18:48.073Z,100005.25
2022-10-22T00:21:14.820Z,100000.31
2022-10-22T00:23:42.882Z,99979.22
2022-10-22T00:26:10.393Z,99979.22
2022-10-22T00:28:37.538Z,99973.53
2022-10-22T00:31:04.725Z,99965.91
2022-10-22T00:33:31.403Z,99970.22
2022-10-22T00:35:58.171Z,99984.69
2022-10-22T00:38:24.842Z,99979.72
2022-10-22T00:40:51.543Z,99977.09
2022-10-22T00:43:19.510Z,99977.19
2022-10-22T00:45:46.316Z,99961.97
2022-10-22T00:48:33.565Z,99955.00
2022-10-22T00:51:04.185Z,99952.47
2022-10-22T00:53:39.521Z,99940.63
2022-10-22T00:56:06.725Z,99938.16
2022-10-22T00:58:36.656Z,99928.75
2022-10-22T01:01:04.796Z,99937.00
2022-10-22T01:03:32.181Z,99940.47
2022-10-22T01:06:00.854Z,99938.75
2022-10-22T01:08:33.628Z,99936.09
2022-10-22T01:11:21.689Z,99927.00
2022-10-22T01:14:06.769Z,99927.84
2022-10-22T01:17:03.990Z,99922.00
2022-10-22T01:19:30.493Z,99923.09
2022-10-22T01:22:02.115Z,99916.28
2022-10-22T01:24:57.452Z,99913.44
2022-10-22T01:27:31.640Z,99917.00
2022-10-22T01:30:10.292Z,99914.47
2022-10-22T01:33:05.298Z,99912.09
2022-10-22T01:35:36.916Z,99915.56
2022-10-22T01:38:08.638Z,99912.03
2022-10-22T01:40:36.546Z,99914.41
2022-10-22T01:43:09.554Z,99914.41
2022-10-22T01:45:41.351Z,99918.44
2022-10-22T01:48:26.125Z,99905.66
2022-10-22T01:51:08.216Z,99898.84
2022-10-22T01:53:52.470Z,99901.88
2022-10-22T01:56:18.943Z,99903.94
2022-10-22T01:58:56.116Z,99911.63
2022-10-22T02:01:50.487Z,99900.59
2022-10-22T02:04:41.623Z,99899.28
2022-10-22T02:07:11.396Z,99897.44
2022-10-22T02:09:40.154Z,99892.16
2022-10-22T02:12:09.206Z,99889.56
2022-10-22T02:14:40.118Z,99887.78
2022-10-22T02:17:12.223Z,99882.97
2022-10-22T02:19:54.786Z,99874.50
2022-10-22T02:22:21.866Z,99863.72
2022-10-22T02:24:49.406Z,99863.78
2022-10-22T02:27:33.019Z,99877.25
2022-10-22T02:30:11.480Z,99865.72
2022-10-22T02:33:13.038Z,99861.56
2022-10-22T02:35:41.853Z,99860.91
2022-10-22T02:38:09.629Z,99856.69
2022-10-22T02:40:36.647Z,99845.69
2022-10-22T02:43:05.818Z,99829.44
2022-10-22T02:45:33.870Z,99830.97
2022-10-22T02:48:00.797Z,99820.00
2022-10-22T02:50:27.347Z,99831.81
2022-10-22T02:52:53.902Z,99831.03
2022-10-22T02:55:20.502Z,99835.38
2022-10-22T02:57:47.121Z,99831.88
2022-10-22T03:00:14.625Z,99827.41
2022-10-22T03:02:41.323Z,99814.88
2022-10-22T03:05:08.441Z,99825.31
2022-10-22T03:07:35.539Z,99825.31
2022-10-22T03:10:02.155Z,99828.91
2022-10-22T03:12:28.677Z,99841.59
2022-10-22T03:14:55.242Z,99839.38
2022-10-22T03:17:21.813Z,99844.50
2022-10-22T03:19:48.325Z,99832.84
2022-10-22T03:22:24.059Z,99831.91
2022-10-22T03:24:55.629Z,99828.56
2022-10-22T03:27:23.101Z,99832.72
2022-10-22T03:29:51.858Z,99817.41
2022-10-22T03:32:19.134Z,99824.22
2022-10-22T03:34:45.796Z,99818.28
2022-10-22T03:37:12.763Z,99808.13
2022-10-22T03:39:39.749Z,99800.47
2022-10-22T03:42:07.438Z,99802.28
2022-10-22T03:44:36.857Z,99798.28
2022-10-22T03:47:03.518Z,99790.66
2022-10-22T03:49:30.342Z,99794.06
2022-10-22T03:51:57.117Z,99796.81
2022-10-22T03:54:23.633Z,99796.91
2022-10-22T03:56:50.186Z,99797.84
2022-10-22T03:59:16.757Z,99801.25
2022-10-22T04:01:43.398Z,99804.66
2022-10-22T04:04:09.905Z,99805.53
2022-10-22T04:06:36.563Z,99804.78
2022-10-22T04:09:03.344Z,99795.31
2022-10-22T04:11:29.917Z,99798.56
2022-10-22T04:13:56.468Z,99791.59
2022-10-22T04:16:25.181Z,99797.31
2022-10-22T04:18:54.185Z,99779.28
2022-10-22T04:21:20.791Z,99767.47
2022-10-22T04:23:49.588Z,99755.34
2022-10-22T04:26:17.610Z,99762.19
2022-10-22T04:28:45.434Z,99762.34
2022-10-22T04:31:14.904Z,99764.22
2022-10-22T04:33:42.105Z,99760.22
2022-10-22T04:36:13.546Z,99749.28
2022-10-22T04:38:40.801Z,99739.25
2022-10-22T04:41:10.853Z,99736.78
2022-10-22T04:43:37.424Z,99732.72
2022-10-22T04:46:04.212Z,99737.94
2022-10-22T04:48:30.772Z,99729.81
2022-10-22T04:50:58.970Z,99715.47
2022-10-22T04:53:25.970Z,99721.75
2022-10-22T04:55:52.496Z,99724.47
2022-10-22T04:58:19.080Z,99733.97
2022-10-22T05:00:45.668Z,99735.84
2022-10-22T05:03:12.219Z,99740.00
2022-10-22T05:05:38.795Z,99741.22
2022-10-22T05:08:05.326Z,99747.16
2022-10-22T05:10:31.842Z,99754.09
2022-10-22T05:12:58.476Z,99749.22
2022-10-22T05:15:24.996Z,99754.50
2022-10-22T05:17:51.563Z,99762.22
2022-10-22T05:20:18.241Z,99764.09
2022-10-22T05:22:44.764Z,99766.75
2022-10-22T05:25:12.219Z,99770.22
2022-10-22T05:27:39.123Z,99765.34
2022-10-22T05:30:06.496Z,99767.09
2022-10-22T05:32:35.496Z,99772.44
2022-10-22T05:35:02.077Z,99783.75
2022-10-22T05:37:28.601Z,99781.19
2022-10-22T05:40:06.513Z,99778.19
2022-10-22T05:42:41.763Z,99787.75
2022-10-22T05:45:08.942Z,99781.19
2022-10-22T05:47:35.471Z,99781.84
2022-10-22T05:50:02.017Z,99773.91
2022-10-22T05:52:28.551Z,99770.19
2022-10-22T05:54:55.061Z,99768.78
2022-10-22T05:57:21.643Z,99764.88
2022-10-22T05:59:48.175Z,99773.81
2022-10-22T06:02:14.760Z,99778.47
2022-10-22T06:04:41.440Z,99772.91
2022-10-22T06:07:11.245Z,99779.63
2022-10-22T06:09:38.987Z,99779.97
2022-10-22T06:12:09.155Z,99787.78
2022-10-22T06:14:35.892Z,99783.59
2022-10-22T06:17:02.461Z,99779.97
2022-10-22T06:19:31.279Z,99776.44
2022-10-22T06:21:57.838Z,99773.28
2022-10-22T06:24:24.388Z,99771.03
2022-10-22T06:26:52.115Z,99768.00
2022-10-22T06:29:19.046Z,99768.88
2022-10-22T06:31:45.575Z,99770.63
2022-10-22T06:34:13.978Z,99768.88
2022-10-22T06:36:42.702Z,99775.66
2022-10-22T06:39:12.479Z,99756.66
2022-10-22T06:41:40.571Z,99756.72
2022-10-22T06:44:07.412Z,99751.91
2022-10-22T06:46:33.960Z,99753.63
2022-10-22T06:49:03.078Z,99741.81
2022-10-22T06:51:30.211Z,99730.22
2022-10-22T06:53:57.972Z,99738.06
2022-10-22T06:56:26.901Z,99722.09
2022-10-22T06:58:55.123Z,99722.97
2022-10-22T07:01:27.545Z,99718.63
2022-10-22T07:03:54.894Z,99713.97
2022-10-22T07:06:23.008Z,99714.97
2022-10-22T07:08:49.755Z,99708.38
2022-10-22T07:11:21.896Z,99711.94
2022-10-22T07:13:49.377Z,99732.13
2022-10-22T07:16:17.073Z,99732.94
2022-10-22T07:18:44.879Z,99735.59
2022-10-22T07:21:12.592Z,99730.38
2022-10-22T07:23:39.712Z,99729.56
2022-10-22T07:26:07.543Z,99735.38
2022-10-22T07:28:36.477Z,99726.31
2022-10-22T07:31:03.118Z,99731.03
2022-10-22T07:33:29.724Z,99733.06
2022-10-22T07:36:01.681Z,99728.78
2022-10-22T07:38:28.889Z,99728.28
2022-10-22T07:40:55.784Z,99721.28
2022-10-22T08:48:14.563Z,99729.69
2022-10-22T08:50:46.168Z,99706.88
2022-10-22T08:53:16.513Z,99690.91
2022-10-22T08:55:43.738Z,99692.78
2022-10-22T08:58:54.756Z,99696.84
2022-10-22T09:01:28.443Z,99703.09
2022-10-22T09:03:59.899Z,99703.19
2022-10-22T09:06:29.197Z,99695.94
2022-10-22T09:08:58.299Z,99689.41
2022-10-22T09:11:42.306Z,99672.97
2022-10-22T09:17:06.478Z,99668.72
2022-10-22T09:19:43.627Z,99663.69
2022-10-22T09:22:12.923Z,99664.63
2022-10-22T09:24:48.091Z,99655.03
2022-10-22T09:27:16.583Z,99661.44
2022-10-22T09:29:44.737Z,99655.34
2022-10-22T09:32:11.530Z,99647.59
2022-10-22T09:34:38.503Z,99643.50
2022-10-22T09:37:09.953Z,99634.06
2022-10-22T09:39:48.569Z,99631.31
2022-10-22T09:42:16.968Z,99636.28
2022-10-22T09:44:47.760Z,99643.22
2022-10-22T09:47:42.972Z,99652.34
2022-10-22T09:50:37.008Z,99650.06
2022-10-22T09:53:18.885Z,99658.66
2022-10-22T09:55:51.302Z,99680.88
2022-10-22T09:58:18.954Z,99686.91
2022-10-22T10:00:51.987Z,99677.06
2022-10-22T10:03:22.210Z,99679.50
2022-10-22T10:05:52.445Z,99661.97
2022-10-22T10:08:19.695Z,99656.00
2022-10-22T10:10:55.525Z,99656.00
2022-10-22T10:13:52.697Z,99634.13
2022-10-22T10:16:25.262Z,99635.91
2022-10-22T10:19:00.927Z,99636.50
2022-10-22T10:21:52.302Z,99652.19
2022-10-22T10:25:00.452Z,99632.59
2022-10-22T10:27:35.447Z,99632.00
2022-10-22T10:30:11.625Z,99646.50
2022-10-22T10:32:50.087Z,99659.75
2022-10-22T10:35:28.276Z,99659.97
2022-10-22T10:38:11.400Z,99656.75
2022-10-22T10:41:00.705Z,99637.81
2022-10-22T10:43:41.654Z,99640.47
2022-10-22T10:46:23.173Z,99645.75
2022-10-22T10:48:53.234Z,99645.31
2022-10-22T10:51:53.790Z,99638.69
2022-10-22T10:54:30.641Z,99632.59
2022-10-22T10:57:31.839Z,99623.47
2022-10-22T11:00:20.108Z,99622.84
2022-10-22T11:03:23.968Z,99629.81
2022-10-22T11:05:58.051Z,99625.91
2022-10-22T11:08:31.874Z,99617.84
2022-10-22T11:11:08.638Z,99624.38
2022-10-22T11:13:38.585Z,99618.28
2022-10-22T11:16:17.003Z,99607.53
2022-10-22T11:19:04.294Z,99604.44
2022-10-22T11:21:30.814Z,99610.31
2022-10-22T11:24:22.679Z,99602.53
2022-10-22T11:26:55.969Z,99582.88
2022-10-22T11:29:29.456Z,99578.59
2022-10-22T11:31:59.626Z,99575.78
2022-10-22T11:34:36.005Z,99571.41
2022-10-22T11:37:05.134Z,99574.75
2022-10-22T11:39:40.942Z,99568.28
2022-10-22T11:42:12.068Z,99561.50
2022-10-22T11:45:00.714Z,99563.31
2022-10-22T11:47:34.878Z,99561.44
2022-10-22T11:50:25.307Z,99551.78
2022-10-22T11:53:16.002Z,99552.06
2022-10-22T11:55:46.036Z,99540.19
2022-10-22T11:58:34.050Z,99539.28
2022-10-22T12:01:09.634Z,99539.22
2022-10-22T12:03:41.165Z,99543.19
2022-10-22T12:06:15.690Z,99554.19
2022-10-22T12:08:47.081Z,99543.97
2022-10-22T12:11:15.739Z,99533.25
2022-10-22T12:14:19.975Z,99523.53
2022-10-22T12:16:56.671Z,99527.13
2022-10-22T12:19:25.882Z,99528.88
2022-10-22T12:22:10.614Z,99528.72
2022-10-22T12:24:41.424Z,99530.63
2022-10-22T12:27:37.673Z,99544.47
2022-10-22T12:30:29.827Z,99550.47
2022-10-22T12:33:00.491Z,99554.66
2022-10-22T12:35:30.262Z,99554.41
2022-10-22T12:38:00.342Z,99548.13
2022-10-22T12:40:33.766Z,99558.28
2022-10-22T12:43:07.499Z,99544.22
2022-10-22T12:45:35.800Z,99536.22
2022-10-22T12:48:08.270Z,99528.22
2022-10-22T12:50:39.455Z,99528.94
2022-10-22T12:53:21.072Z,99528.66
2022-10-22T12:55:50.088Z,99532.66
2022-10-22T12:58:21.338Z,99534.28
2022-10-22T13:00:48.972Z,99524.91
2022-10-22T13:03:26.059Z,99537.00
2022-10-22T13:05:52.598Z,99523.25
2022-10-22T13:10:55.892Z,99523.56
2022-10-22T13:13:39.047Z,99533.84
2022-10-22T13:16:20.123Z,99545.72
2022-10-22T13:18:48.487Z,99552.38
2022-10-22T13:21:26.929Z,99545.34
2022-10-22T13:23:58.945Z,99528.19
2022-10-22T13:26:32.311Z,99520.50
2022-10-22T13:29:01.271Z,99537.63
2022-10-22T13:31:33.484Z,99535.03
2022-10-22T13:34:09.829Z,99521.22
2022-10-22T13:36:38.576Z,99532.31
2022-10-22T13:39:08.891Z,99521.13
2022-10-22T13:44:06.864Z,99526.13
2022-10-22T13:46:33.889Z,99526.06
2022-10-22T13:49:00.502Z,99522.53
2022-10-22T13:51:37.480Z,99521.66
2022-10-22T13:54:10.571Z,99524.19
2022-10-22T13:56:37.165Z,99507.09
2022-10-22T13:59:03.702Z,99507.00
2022-10-22T14:01:30.726Z,99500.22
2022-10-22T14:03:59.707Z,99493.41
2022-10-22T14:06:31.267Z,99491.69
2022-10-22T14:09:01.061Z,99484.81
2022-10-22T14:11:28.316Z,99485.63
2022-10-22T14:13:55.084Z,99471.13
2022-10-22T14:16:24.451Z,99456.69
2022-10-22T14:18:51.591Z,99454.22
2022-10-22T14:21:18.787Z,99450.06
2022-10-22T14:23:47.422Z,99448.50
2022-10-22T14:26:33.722Z,99444.38
2022-10-22T14:29:10.182Z,99440.88
2022-10-22T14:34:07.067Z,99418.47
2022-10-22T14:36:33.592Z,99415.75
2022-10-22T14:39:00.202Z,99415.53
2022-10-22T14:41:29.069Z,99405.84
2022-10-22T14:43:56.042Z,99429.50
2022-10-22T14:46:22.957Z,99418.34
2022-10-22T14:48:49.736Z,99405.34
2022-10-22T14:51:18.401Z,99400.88
2022-10-22T14:53:45.671Z,99398.00
2022-10-22T14:56:13.440Z,99402.13
2022-10-22T14:58:41.032Z,99402.78
2022-10-22T15:01:08.969Z,99418.06
2022-10-22T15:03:36.246Z,99422.91
2022-10-22T15:06:03.326Z,99419.41
2022-10-22T15:08:30.419Z,99413.34
2022-10-22T15:11:04.583Z,99411.53
2022-10-22T15:13:32.259Z,99420.81
2022-10-22T15:15:59.258Z,99416.31
2022-10-22T15:18:26.887Z,99421.38
2022-10-22T15:21:01.485Z,99428.88
2022-10-22T15:23:28.789Z,99437.41
2022-10-22T15:25:55.674Z,99437.22
2022-10-22T15:28:22.681Z,99431.06
2022-10-22T15:31:00.226Z,99447.13
2022-10-22T15:33:28.544Z,99439.28
2022-10-22T15:35:55.787Z,99442.44
2022-10-22T15:38:27.599Z,99448.97
2022-10-22T18:57:09.656Z,99356.00
2022-10-22T18:59:36.290Z,99356.94
2022-10-22T19:02:02.835Z,99354.31
2022-10-22T19:04:36.573Z,99356.00
2022-10-22T19:07:05.269Z,99353.50
2022-10-22T19:09:31.995Z,99342.28
2022-10-22T19:11:59.554Z,99345.69
2022-10-22T19:14:26.152Z,99343.13
2022-10-22T19:16:52.929Z,99340.50
2022-10-22T19:19:21.465Z,99341.41
2022-10-22T19:21:48.711Z,99343.22
2022-10-22T19:24:18.061Z,99344.84
2022-10-22T19:26:45.406Z,99339.63
2022-10-22T19:29:12.272Z,99343.03
2022-10-22T19:31:40.814Z,99345.59
2022-10-22T19:34:07.407Z,99340.50
2022-10-22T19:36:35.307Z,99347.25
2022-10-22T19:39:03.631Z,99341.28
2022-10-22T19:41:32.580Z,99345.59
2022-10-22T19:44:00.568Z,99348.16
2022-10-22T19:46:29.226Z,99347.38
2022-10-22T19:48:57.378Z,99351.66
2022-10-22T19:51:33.558Z,99343.97
2022-10-22T19:54:01.481Z,99355.06
2022-10-22T19:56:28.886Z,99349.78
2022-10-22T19:58:55.813Z,99349.94
2022-10-22T20:01:23.067Z,99359.34
2022-10-22T20:03:49.745Z,99358.47
2022-10-22T20:06:17.784Z,99367.78
2022-10-22T20:08:44.941Z,99370.25
2022-10-22T20:11:22.952Z,99366.06
2022-10-22T20:13:52.229Z,99367.69
2022-10-22T20:16:23.102Z,99363.41
2022-10-22T20:18:50.601Z,99367.50
2022-10-22T20:21:19.368Z,99368.28
2022-10-22T20:23:47.440Z,99366.59
2022-10-22T20:26:14.345Z,99360.56
2022-10-22T20:28:40.976Z,99357.94
2022-10-22T20:31:16.998Z,99356.16
2022-10-22T20:33:43.656Z,99356.91
2022-10-22T20:36:15.893Z,99348.34
2022-10-22T20:38:43.424Z,99352.63
2022-10-22T20:41:16.030Z,99346.63
2022-10-22T20:43:46.914Z,99341.59
2022-10-22T20:46:23.233Z,99340.59
2022-10-22T20:48:55.421Z,99338.81
2022-10-22T20:51:22.202Z,99338.81
2022-10-22T20:53:48.768Z,99332.06
2022-10-22T20:56:16.377Z,99332.06
2022-10-22T20:58:48.001Z,99321.75
2022-10-22T21:01:24.185Z,99326.00
2022-10-22T21:03:52.817Z,99313.22
2022-10-22T21:06:23.245Z,99316.69
2022-10-22T21:08:51.193Z,99314.00
2022-10-22T21:11:18.786Z,99309.75
2022-10-22T21:13:45.368Z,99298.75
2022-10-22T21:16:14.079Z,99295.41
2022-10-22T21:18:40.755Z,99303.94
2022-10-22T21:21:08.435Z,99287.69
2022-10-22T21:23:36.211Z,99286.03
2022-10-22T21:26:03.679Z,99282.59
2022-10-22T21:28:35.289Z,99278.38
2022-10-22T21:31:04.399Z,99280.06
2022-10-22T21:33:31.076Z,99279.16
2022-10-22T21:35:57.755Z,99279.25
2022-10-22T21:38:25.316Z,99279.25
2022-10-22T21:40:52.277Z,99286.13
2022-10-22T21:43:19.163Z,99284.41
2022-10-22T21:45:45.773Z,99281.00
2022-10-22T21:48:15.593Z,99277.63
2022-10-22T21:50:44.012Z,99274.97
2022-10-22T21:53:12.100Z,99273.19
2022-10-22T21:55:40.247Z,99276.59
2022-10-22T21:58:07.618Z,99272.34
2022-10-22T22:00:35.251Z,99269.81
2022-10-22T22:03:01.860Z,99273.97
2022-10-22T22:05:28.996Z,99265.59
2022-10-22T22:07:55.576Z,99262.13
2022-10-22T22:10:22.118Z,99262.09
2022-10-22T22:12:51.316Z,99263.84
2022-10-22T22:15:19.232Z,99264.66
2022-10-22T22:17:45.791Z,99251.97
2022-10-22T22:20:12.352Z,99256.31
2022-10-22T22:22:39.123Z,99248.72
2022-10-22T22:25:06.089Z,99247.88
2022-10-22T22:27:32.646Z,99249.56
2022-10-22T22:29:59.175Z,99258.94
2022-10-22T22:32:25.792Z,99248.78
2022-10-22T22:34:52.327Z,99249.63
2022-10-22T22:37:18.852Z,99247.09
2022-10-22T22:39:45.413Z,99248.84
2022-10-22T22:42:11.951Z,99246.25
2022-10-22T22:44:38.979Z,99243.75
2022-10-22T22:47:05.566Z,99250.56
2022-10-22T22:49:32.106Z,99244.56
2022-10-22T22:51:58.663Z,99252.31
2022-10-22T22:54:25.246Z,99248.03
2022-10-22T22:56:51.806Z,99244.59
2022-10-22T22:59:18.355Z,99247.97
2022-10-22T23:01:48.610Z,99248.78
2022-10-22T23:04:22.851Z,99248.88
2022-10-22T23:06:50.119Z,99250.44
2022-10-22T23:09:21.682Z,99248.72
2022-10-22T23:11:48.388Z,99247.06
2022-10-22T23:14:17.715Z,99252.31
2022-10-22T23:16:49.668Z,99248.03
2022-10-22T23:19:18.976Z,99247.06
2022-10-22T23:21:48.458Z,99254.75
2022-10-22T23:24:17.562Z,99248.72
2022-10-22T23:26:46.357Z,99245.38
2022-10-22T23:29:30.553Z,99251.28
2022-10-22T23:32:01.315Z,99250.38
2022-10-22T23:34:28.836Z,99246.88
2022-10-22T23:36:56.589Z,99249.44
2022-10-22T23:39:26.253Z,99240.84
2022-10-22T23:41:53.238Z,99234.94
2022-10-22T23:44:20.825Z,99243.38
2022-10-22T23:46:47.399Z,99240.75
2022-10-22T23:49:14.662Z,99241.59
2022-10-22T23:51:41.694Z,99238.13
2022-10-22T23:54:13.456Z,99238.09
2022-10-22T23:56:40.049Z,99227.75
2022-10-22T23:59:07.291Z,99236.25
